sensor_id;sensor_type;location;lat;lon;timestamp;pressure;altitude;pressure_sealevel;temperature;humidity
58072;BME280;60383;46.626;18.866;2024-02-26T00:02:13;99618.91;;;9.41;100.00
58072;BME280;60383;46.626;18.866;2024-02-26T00:04:39;99616.28;;;9.15;100.00
58072;BME280;60383;46.626;18.866;2024-02-26T00:07:05;99628.44;;;9.20;100.00
58072;BME280;60383;46.626;18.866;2024-02-26T00:09:30;99622.78;;;9.14;100.00
58072;BME280;60383;46.626;18.866;2024-02-26T00:11:56;99625.38;;;9.15;100.00
58072;BME280;60383;46.626;18.866;2024-02-26T00:14:21;99621.97;;;9.30;100.00
58072;BME280;60383;46.626;18.866;2024-02-26T00:16:47;99636.66;;;9.29;100.00
58072;BME280;60383;46.626;18.866;2024-02-26T00:19:12;99633.25;;;9.35;100.00
58072;BME280;60383;46.626;18.866;2024-02-26T00:21:41;99627.78;;;9.35;100.00
58072;BME280;60383;46.626;18.866;2024-02-26T00:24:07;99620.94;;;9.47;100.00
58072;BME280;60383;46.626;18.866;2024-02-26T00:26:33;99619.06;;;9.39;100.00
58072;BME280;60383;46.626;18.866;2024-02-26T00:28:58;99625.88;;;9.35;100.00
58072;BME280;60383;46.626;18.866;2024-02-26T00:31:24;99618.22;;;9.39;100.00
58072;BME280;60383;46.626;18.866;2024-02-26T00:33:49;99613.25;;;9.34;100.00
58072;BME280;60383;46.626;18.866;2024-02-26T00:36:15;99614.44;;;9.40;100.00
58072;BME280;60383;46.626;18.866;2024-02-26T00:38:40;99615.28;;;9.16;100.00
58072;BME280;60383;46.626;18.866;2024-02-26T00:41:06;99620.75;;;9.16;100.00
58072;BME280;60383;46.626;18.866;2024-02-26T00:43:31;99618.56;;;9.27;100.00
58072;BME280;60383;46.626;18.866;2024-02-26T00:45:57;99612.88;;;9.21;100.00
58072;BME280;60383;46.626;18.866;2024-02-26T00:48:22;99612.38;;;9.25;100.00
58072;BME280;60383;46.626;18.866;2024-02-26T00:50:47;99616.13;;;9.24;100.00
58072;BME280;60383;46.626;18.866;2024-02-26T00:53:13;99603.69;;;9.30;100.00
58072;BME280;60383;46.626;18.866;2024-02-26T00:55:38;99605.88;;;9.18;100.00
58072;BME280;60383;46.626;18.866;2024-02-26T00:58:04;99593.94;;;9.11;100.00
58072;BME280;60383;46.626;18.866;2024-02-26T01:00:29;99594.44;;;8.98;100.00
58072;BME280;60383;46.626;18.866;2024-02-26T01:02:54;99592.22;;;9.10;100.00
58072;BME280;60383;46.626;18.866;2024-02-26T01:05:20;99600.09;;;9.21;100.00
58072;BME280;60383;46.626;18.866;2024-02-26T01:07:45;99600.25;;;9.28;100.00
58072;BME280;60383;46.626;18.866;2024-02-26T01:10:11;99599.41;;;9.27;100.00
58072;BME280;60383;46.626;18.866;2024-02-26T01:12:36;99593.78;;;9.29;100.00
58072;BME280;60383;46.626;18.866;2024-02-26T01:15:02;99591.56;;;9.24;100.00
58072;BME280;60383;46.626;18.866;2024-02-26T01:17:28;99583.88;;;9.28;100.00
58072;BME280;60383;46.626;18.866;2024-02-26T01:19:53;99585.25;;;9.32;100.00
58072;BME280;60383;46.626;18.866;2024-02-26T01:22:19;99585.56;;;9.29;100.00
58072;BME280;60383;46.626;18.866;2024-02-26T01:24:45;99582.50;;;9.24;100.00
58072;BME280;60383;46.626;18.866;2024-02-26T01:27:10;99564.94;;;9.35;100.00
58072;BME280;60383;46.626;18.866;2024-02-26T01:29:36;99568.84;;;9.40;100.00
58072;BME280;60383;46.626;18.866;2024-02-26T01:32:01;99570.34;;;9.10;100.00
58072;BME280;60383;46.626;18.866;2024-02-26T01:34:27;99564.91;;;9.18;100.00
58072;BME280;60383;46.626;18.866;2024-02-26T01:36:52;99563.56;;;9.39;100.00
58072;BME280;60383;46.626;18.866;2024-02-26T01:39:17;99569.69;;;9.33;100.00
58072;BME280;60383;46.626;18.866;2024-02-26T01:41:43;99558.44;;;9.36;100.00
58072;BME280;60383;46.626;18.866;2024-02-26T01:44:12;99568.84;;;9.16;100.00
58072;BME280;60383;46.626;18.866;2024-02-26T01:46:37;99557.75;;;9.25;100.00
58072;BME280;60383;46.626;18.866;2024-02-26T01:49:03;99558.78;;;9.08;100.00
58072;BME280;60383;46.626;18.866;2024-02-26T01:51:30;99557.22;;;8.97;100.00
58072;BME280;60383;46.626;18.866;2024-02-26T01:53:56;99557.22;;;9.05;100.00
58072;BME280;60383;46.626;18.866;2024-02-26T01:56:23;99552.09;;;9.10;100.00
58072;BME280;60383;46.626;18.866;2024-02-26T01:58:53;99554.16;;;9.17;100.00
58072;BME280;60383;46.626;18.866;2024-02-26T02:01:21;99552.59;;;9.06;100.00
58072;BME280;60383;46.626;18.866;2024-02-26T02:03:47;99551.25;;;9.18;100.00
58072;BME280;60383;46.626;18.866;2024-02-26T02:06:15;99556.19;;;9.15;100.00
58072;BME280;60383;46.626;18.866;2024-02-26T02:08:41;99557.56;;;9.10;100.00
58072;BME280;60383;46.626;18.866;2024-02-26T02:11:07;99557.72;;;9.01;100.00
58072;BME280;60383;46.626;18.866;2024-02-26T02:13:34;99560.97;;;9.04;100.00
58072;BME280;60383;46.626;18.866;2024-02-26T02:15:59;99557.34;;;8.79;100.00
58072;BME280;60383;46.626;18.866;2024-02-26T02:18:24;99544.91;;;8.93;100.00
58072;BME280;60383;46.626;18.866;2024-02-26T02:20:50;99550.72;;;8.98;100.00
58072;BME280;60383;46.626;18.866;2024-02-26T02:23:15;99552.94;;;9.11;100.00
58072;BME280;60383;46.626;18.866;2024-02-26T02:25:41;99551.59;;;9.15;100.00
58072;BME280;60383;46.626;18.866;2024-02-26T02:28:06;99542.38;;;9.24;100.00
58072;BME280;60383;46.626;18.866;2024-02-26T02:30:32;99536.22;;;9.31;100.00
58072;BME280;60383;46.626;18.866;2024-02-26T02:32:58;99543.91;;;9.27;100.00
58072;BME280;60383;46.626;18.866;2024-02-26T02:35:24;99533.84;;;9.19;100.00
58072;BME280;60383;46.626;18.866;2024-02-26T02:37:52;99552.25;;;9.17;100.00
58072;BME280;60383;46.626;18.866;2024-02-26T02:40:17;99552.63;;;9.22;100.00
58072;BME280;60383;46.626;18.866;2024-02-26T02:42:43;99547.16;;;9.22;100.00
58072;BME280;60383;46.626;18.866;2024-02-26T02:45:09;99543.75;;;9.20;100.00
58072;BME280;60383;46.626;18.866;2024-02-26T02:47:37;99540.69;;;9.15;100.00
58072;BME280;60383;46.626;18.866;2024-02-26T02:50:03;99531.59;;;9.06;100.00
58072;BME280;60383;46.626;18.866;2024-02-26T02:52:29;99551.22;;;9.10;100.00
58072;BME280;60383;46.626;18.866;2024-02-26T02:54:54;99560.81;;;9.14;100.00
58072;BME280;60383;46.626;18.866;2024-02-26T02:57:20;99553.66;;;9.13;100.00
58072;BME280;60383;46.626;18.866;2024-02-26T02:59:46;99551.06;;;9.03;100.00
58072;BME280;60383;46.626;18.866;2024-02-26T03:02:11;99545.94;;;9.08;100.00
58072;BME280;60383;46.626;18.866;2024-02-26T03:04:37;99548.16;;;9.05;100.00
58072;BME280;60383;46.626;18.866;2024-02-26T03:07:02;99552.81;;;9.13;100.00
58072;BME280;60383;46.626;18.866;2024-02-26T03:09:28;99543.41;;;9.15;100.00
58072;BME280;60383;46.626;18.866;2024-02-26T03:11:53;99538.59;;;9.17;100.00
58072;BME280;60383;46.626;18.866;2024-02-26T03:14:19;99536.22;;;9.14;100.00
58072;BME280;60383;46.626;18.866;2024-02-26T03:16:44;99535.88;;;9.17;100.00
58072;BME280;60383;46.626;18.866;2024-02-26T03:19:10;99534.19;;;9.08;100.00
58072;BME280;60383;46.626;18.866;2024-02-26T03:21:35;99536.22;;;9.14;100.00
58072;BME280;60383;46.626;18.866;2024-02-26T03:24:01;99530.78;;;9.14;100.00
58072;BME280;60383;46.626;18.866;2024-02-26T03:26:26;99531.47;;;9.16;100.00
58072;BME280;60383;46.626;18.866;2024-02-26T03:28:51;99526.31;;;9.13;100.00
58072;BME280;60383;46.626;18.866;2024-02-26T03:31:17;99532.28;;;9.00;100.00
58072;BME280;60383;46.626;18.866;2024-02-26T03:33:42;99522.03;;;8.94;100.00
58072;BME280;60383;46.626;18.866;2024-02-26T03:36:08;99525.28;;;9.06;100.00
58072;BME280;60383;46.626;18.866;2024-02-26T03:38:33;99523.59;;;9.05;100.00
58072;BME280;60383;46.626;18.866;2024-02-26T03:40:59;99528.03;;;9.06;100.00
58072;BME280;60383;46.626;18.866;2024-02-26T03:43:24;99521.88;;;9.04;100.00
58072;BME280;60383;46.626;18.866;2024-02-26T03:45:49;99532.44;;;8.90;100.00
58072;BME280;60383;46.626;18.866;2024-02-26T03:48:15;99524.38;;;8.72;100.00
58072;BME280;60383;46.626;18.866;2024-02-26T03:50:40;99523.22;;;8.75;100.00
58072;BME280;60383;46.626;18.866;2024-02-26T03:53:06;99524.22;;;8.82;100.00
58072;BME280;60383;46.626;18.866;2024-02-26T03:55:34;99529.19;;;8.87;100.00
58072;BME280;60383;46.626;18.866;2024-02-26T03:57:59;99524.63;;;8.95;100.00
58072;BME280;60383;46.626;18.866;2024-02-26T04:00:25;99533.13;;;8.92;100.00
58072;BME280;60383;46.626;18.866;2024-02-26T04:02:51;99519.97;;;8.88;100.00
58072;BME280;60383;46.626;18.866;2024-02-26T04:05:16;99527.66;;;8.84;100.00
58072;BME280;60383;46.626;18.866;2024-02-26T04:07:42;99526.78;;;8.75;100.00
58072;BME280;60383;46.626;18.866;2024-02-26T04:10:11;99526.59;;;8.69;100.00
58072;BME280;60383;46.626;18.866;2024-02-26T04:12:40;99531.25;;;8.76;100.00
58072;BME280;60383;46.626;18.866;2024-02-26T04:15:09;99529.34;;;8.77;100.00
58072;BME280;60383;46.626;18.866;2024-02-26T04:17:36;99525.97;;;8.75;100.00
58072;BME280;60383;46.626;18.866;2024-02-26T04:20:02;99521.31;;;8.67;100.00
58072;BME280;60383;46.626;18.866;2024-02-26T04:22:28;99532.41;;;8.66;100.00
58072;BME280;60383;46.626;18.866;2024-02-26T04:24:54;99525.44;;;8.71;100.00
58072;BME280;60383;46.626;18.866;2024-02-26T04:27:19;99533.63;;;8.79;100.00
58072;BME280;60383;46.626;18.866;2024-02-26T04:29:44;99539.59;;;8.75;100.00
58072;BME280;60383;46.626;18.866;2024-02-26T04:32:10;99536.53;;;8.78;100.00
58072;BME280;60383;46.626;18.866;2024-02-26T04:34:35;99536.00;;;8.74;100.00
58072;BME280;60383;46.626;18.866;2024-02-26T04:37:01;99530.19;;;8.69;100.00
58072;BME280;60383;46.626;18.866;2024-02-26T04:39:26;99536.84;;;8.67;100.00
58072;BME280;60383;46.626;18.866;2024-02-26T04:41:51;99538.03;;;8.64;100.00
58072;BME280;60383;46.626;18.866;2024-02-26T04:44:17;99532.06;;;8.60;100.00
58072;BME280;60383;46.626;18.866;2024-02-26T04:46:42;99520.97;;;8.62;100.00
58072;BME280;60383;46.626;18.866;2024-02-26T04:49:08;99533.44;;;8.65;100.00
58072;BME280;60383;46.626;18.866;2024-02-26T04:51:34;99525.94;;;8.67;100.00
58072;BME280;60383;46.626;18.866;2024-02-26T04:54:00;99531.88;;;8.62;100.00
58072;BME280;60383;46.626;18.866;2024-02-26T04:56:25;99534.94;;;8.59;100.00
58072;BME280;60383;46.626;18.866;2024-02-26T04:58:51;99523.00;;;8.60;100.00
58072;BME280;60383;46.626;18.866;2024-02-26T05:01:16;99525.91;;;8.58;100.00
58072;BME280;60383;46.626;18.866;2024-02-26T05:03:42;99520.09;;;8.61;100.00
58072;BME280;60383;46.626;18.866;2024-02-26T05:06:08;99517.19;;;8.55;100.00
58072;BME280;60383;46.626;18.866;2024-02-26T05:08:34;99523.69;;;8.62;100.00
58072;BME280;60383;46.626;18.866;2024-02-26T05:11:01;99527.97;;;8.65;100.00
58072;BME280;60383;46.626;18.866;2024-02-26T05:13:28;99528.31;;;8.70;100.00
58072;BME280;60383;46.626;18.866;2024-02-26T05:15:53;99537.03;;;8.73;100.00
58072;BME280;60383;46.626;18.866;2024-02-26T05:18:19;99524.22;;;8.66;100.00
58072;BME280;60383;46.626;18.866;2024-02-26T05:20:44;99529.03;;;8.88;100.00
58072;BME280;60383;46.626;18.866;2024-02-26T05:23:10;99517.59;;;8.93;100.00
58072;BME280;60383;46.626;18.866;2024-02-26T05:25:35;99522.22;;;8.92;100.00
58072;BME280;60383;46.626;18.866;2024-02-26T05:28:01;99512.81;;;8.95;100.00
58072;BME280;60383;46.626;18.866;2024-02-26T05:30:26;99512.13;;;8.93;100.00
58072;BME280;60383;46.626;18.866;2024-02-26T05:32:53;99522.34;;;8.74;100.00
58072;BME280;60383;46.626;18.866;2024-02-26T05:35:18;99518.41;;;8.69;100.00
58072;BME280;60383;46.626;18.866;2024-02-26T05:37:44;99529.81;;;8.56;100.00
58072;BME280;60383;46.626;18.866;2024-02-26T05:40:10;99520.28;;;8.60;100.00
58072;BME280;60383;46.626;18.866;2024-02-26T05:42:35;99510.22;;;8.60;100.00
58072;BME280;60383;46.626;18.866;2024-02-26T05:45:01;99508.16;;;8.62;100.00
58072;BME280;60383;46.626;18.866;2024-02-26T05:47:32;99507.31;;;8.62;100.00
58072;BME280;60383;46.626;18.866;2024-02-26T05:49:57;99511.78;;;8.71;100.00
58072;BME280;60383;46.626;18.866;2024-02-26T05:52:24;99516.06;;;8.74;100.00
58072;BME280;60383;46.626;18.866;2024-02-26T05:54:50;99523.34;;;8.65;100.00
58072;BME280;60383;46.626;18.866;2024-02-26T05:57:15;99524.94;;;8.84;100.00
58072;BME280;60383;46.626;18.866;2024-02-26T05:59:41;99525.28;;;9.06;100.00
58072;BME280;60383;46.626;18.866;2024-02-26T06:02:06;99530.91;;;8.96;100.00
58072;BME280;60383;46.626;18.866;2024-02-26T06:04:31;99530.38;;;8.84;100.00
58072;BME280;60383;46.626;18.866;2024-02-26T06:06:57;99535.63;;;8.61;100.00
58072;BME280;60383;46.626;18.866;2024-02-26T06:09:23;99540.91;;;8.62;100.00
58072;BME280;60383;46.626;18.866;2024-02-26T06:11:48;99547.25;;;8.63;100.00
58072;BME280;60383;46.626;18.866;2024-02-26T06:14:13;99552.00;;;8.61;100.00
58072;BME280;60383;46.626;18.866;2024-02-26T06:16:43;99544.19;;;8.74;100.00
58072;BME280;60383;46.626;18.866;2024-02-26T06:19:09;99551.34;;;8.67;100.00
58072;BME280;60383;46.626;18.866;2024-02-26T06:21:34;99547.59;;;8.68;100.00
58072;BME280;60383;46.626;18.866;2024-02-26T06:24:00;99550.16;;;8.70;100.00
58072;BME280;60383;46.626;18.866;2024-02-26T06:26:26;99550.88;;;8.80;100.00
58072;BME280;60383;46.626;18.866;2024-02-26T06:28:54;99555.31;;;8.81;100.00
58072;BME280;60383;46.626;18.866;2024-02-26T06:31:21;99560.41;;;8.84;100.00
58072;BME280;60383;46.626;18.866;2024-02-26T06:33:51;99561.47;;;8.91;100.00
58072;BME280;60383;46.626;18.866;2024-02-26T06:36:16;99571.88;;;8.88;100.00
58072;BME280;60383;46.626;18.866;2024-02-26T06:38:41;99566.59;;;9.03;100.00
58072;BME280;60383;46.626;18.866;2024-02-26T06:41:07;99572.41;;;9.00;100.00
58072;BME280;60383;46.626;18.866;2024-02-26T06:43:32;99577.00;;;9.07;100.00
58072;BME280;60383;46.626;18.866;2024-02-26T06:45:58;99574.13;;;9.25;100.00
58072;BME280;60383;46.626;18.866;2024-02-26T06:48:24;99561.34;;;9.26;100.00
58072;BME280;60383;46.626;18.866;2024-02-26T06:50:49;99571.94;;;9.46;100.00
58072;BME280;60383;46.626;18.866;2024-02-26T06:53:15;99567.81;;;9.50;100.00
58072;BME280;60383;46.626;18.866;2024-02-26T06:55:41;99561.50;;;9.33;100.00
58072;BME280;60383;46.626;18.866;2024-02-26T06:58:08;99569.53;;;9.34;100.00
58072;BME280;60383;46.626;18.866;2024-02-26T07:00:33;99561.66;;;9.72;100.00
58072;BME280;60383;46.626;18.866;2024-02-26T07:02:59;99566.09;;;9.73;100.00
58072;BME280;60383;46.626;18.866;2024-02-26T07:05:24;99574.81;;;9.61;100.00
58072;BME280;60383;46.626;18.866;2024-02-26T07:07:50;99558.75;;;9.66;100.00
58072;BME280;60383;46.626;18.866;2024-02-26T07:10:16;99554.47;;;9.71;100.00
58072;BME280;60383;46.626;18.866;2024-02-26T07:12:41;99549.53;;;9.58;100.00
58072;BME280;60383;46.626;18.866;2024-02-26T07:15:07;99560.59;;;9.82;100.00
58072;BME280;60383;46.626;18.866;2024-02-26T07:17:33;99561.81;;;9.79;100.00
58072;BME280;60383;46.626;18.866;2024-02-26T07:20:01;99557.81;;;10.06;100.00
58072;BME280;60383;46.626;18.866;2024-02-26T07:22:30;99566.25;;;9.88;100.00
58072;BME280;60383;46.626;18.866;2024-02-26T07:24:56;99575.75;;;10.17;100.00
58072;BME280;60383;46.626;18.866;2024-02-26T07:27:21;99573.31;;;10.39;100.00
58072;BME280;60383;46.626;18.866;2024-02-26T07:29:47;99571.91;;;10.43;100.00
58072;BME280;60383;46.626;18.866;2024-02-26T07:32:12;99572.38;;;10.55;100.00
58072;BME280;60383;46.626;18.866;2024-02-26T07:34:38;99574.19;;;10.71;100.00
58072;BME280;60383;46.626;18.866;2024-02-26T07:37:07;99577.09;;;10.13;100.00
58072;BME280;60383;46.626;18.866;2024-02-26T07:39:33;99581.16;;;10.34;100.00
58072;BME280;60383;46.626;18.866;2024-02-26T07:41:58;99585.59;;;10.35;100.00
58072;BME280;60383;46.626;18.866;2024-02-26T07:44:24;99585.56;;;10.51;100.00
58072;BME280;60383;46.626;18.866;2024-02-26T07:46:49;99590.31;;;10.66;100.00
58072;BME280;60383;46.626;18.866;2024-02-26T07:49:14;99586.59;;;10.90;100.00
58072;BME280;60383;46.626;18.866;2024-02-26T07:51:40;99579.78;;;11.32;100.00
58072;BME280;60383;46.626;18.866;2024-02-26T07:54:05;99592.16;;;11.28;100.00
58072;BME280;60383;46.626;18.866;2024-02-26T07:56:31;99593.19;;;11.27;100.00
58072;BME280;60383;46.626;18.866;2024-02-26T07:58:56;99591.66;;;11.48;100.00
58072;BME280;60383;46.626;18.866;2024-02-26T08:01:22;99597.63;;;11.28;100.00
58072;BME280;60383;46.626;18.866;2024-02-26T08:03:48;99594.53;;;11.31;100.00
58072;BME280;60383;46.626;18.866;2024-02-26T08:06:13;99602.19;;;11.13;100.00
58072;BME280;60383;46.626;18.866;2024-02-26T08:08:39;99583.00;;;11.13;100.00
58072;BME280;60383;46.626;18.866;2024-02-26T08:11:04;99580.75;;;11.16;100.00
58072;BME280;60383;46.626;18.866;2024-02-26T08:13:30;99581.31;;;11.12;100.00
58072;BME280;60383;46.626;18.866;2024-02-26T08:15:55;99591.31;;;11.28;100.00
58072;BME280;60383;46.626;18.866;2024-02-26T08:18:21;99598.16;;;11.24;100.00
58072;BME280;60383;46.626;18.866;2024-02-26T08:20:46;99593.81;;;10.83;100.00
58072;BME280;60383;46.626;18.866;2024-02-26T08:23:14;99589.16;;;11.15;100.00
58072;BME280;60383;46.626;18.866;2024-02-26T08:25:39;99599.19;;;11.23;100.00
58072;BME280;60383;46.626;18.866;2024-02-26T08:28:05;99603.66;;;10.92;100.00
58072;BME280;60383;46.626;18.866;2024-02-26T08:30:30;99604.75;;;11.14;100.00
58072;BME280;60383;46.626;18.866;2024-02-26T08:32:56;99603.28;;;11.03;100.00
58072;BME280;60383;46.626;18.866;2024-02-26T08:35:21;99607.59;;;11.21;100.00
58072;BME280;60383;46.626;18.866;2024-02-26T08:37:47;99606.63;;;11.14;100.00
58072;BME280;60383;46.626;18.866;2024-02-26T08:40:13;99602.75;;;11.08;100.00
58072;BME280;60383;46.626;18.866;2024-02-26T08:42:39;99606.19;;;11.02;100.00
58072;BME280;60383;46.626;18.866;2024-02-26T08:45:04;99609.06;;;11.09;100.00
58072;BME280;60383;46.626;18.866;2024-02-26T08:47:30;99611.66;;;11.02;100.00
58072;BME280;60383;46.626;18.866;2024-02-26T08:49:56;99603.16;;;11.20;100.00
58072;BME280;60383;46.626;18.866;2024-02-26T08:52:21;99604.03;;;11.21;100.00
58072;BME280;60383;46.626;18.866;2024-02-26T08:54:47;99601.44;;;11.19;100.00
58072;BME280;60383;46.626;18.866;2024-02-26T08:57:12;99596.50;;;10.91;100.00
58072;BME280;60383;46.626;18.866;2024-02-26T08:59:38;99593.38;;;11.26;100.00
58072;BME280;60383;46.626;18.866;2024-02-26T09:02:03;99606.22;;;11.25;100.00
58072;BME280;60383;46.626;18.866;2024-02-26T09:04:28;99596.69;;;11.13;100.00
58072;BME280;60383;46.626;18.866;2024-02-26T09:06:54;99596.78;;;11.28;100.00
58072;BME280;60383;46.626;18.866;2024-02-26T09:09:20;99597.44;;;11.30;100.00
58072;BME280;60383;46.626;18.866;2024-02-26T09:11:47;99594.22;;;11.49;100.00
58072;BME280;60383;46.626;18.866;2024-02-26T09:14:13;99590.31;;;11.44;100.00
58072;BME280;60383;46.626;18.866;2024-02-26T09:16:39;99592.44;;;11.33;100.00
58072;BME280;60383;46.626;18.866;2024-02-26T09:19:04;99598.41;;;11.14;100.00
58072;BME280;60383;46.626;18.866;2024-02-26T09:21:30;99593.06;;;11.21;100.00
58072;BME280;60383;46.626;18.866;2024-02-26T09:23:55;99599.28;;;10.83;100.00
58072;BME280;60383;46.626;18.866;2024-02-26T09:26:21;99589.66;;;11.18;100.00
58072;BME280;60383;46.626;18.866;2024-02-26T09:28:46;99589.28;;;11.22;100.00
58072;BME280;60383;46.626;18.866;2024-02-26T09:31:12;99589.06;;;11.31;100.00
58072;BME280;60383;46.626;18.866;2024-02-26T09:33:37;99598.41;;;11.37;100.00
58072;BME280;60383;46.626;18.866;2024-02-26T09:36:04;99590.09;;;11.30;100.00
58072;BME280;60383;46.626;18.866;2024-02-26T09:38:31;99601.72;;;11.56;100.00
58072;BME280;60383;46.626;18.866;2024-02-26T09:41:02;99596.28;;;11.01;100.00
58072;BME280;60383;46.626;18.866;2024-02-26T09:43:34;99610.78;;;10.78;100.00
58072;BME280;60383;46.626;18.866;2024-02-26T09:45:59;99612.88;;;10.68;100.00
58072;BME280;60383;46.626;18.866;2024-02-26T09:48:25;99610.09;;;11.31;100.00
58072;BME280;60383;46.626;18.866;2024-02-26T09:50:51;99609.78;;;11.72;100.00
58072;BME280;60383;46.626;18.866;2024-02-26T09:53:18;99614.06;;;11.51;100.00
58072;BME280;60383;46.626;18.866;2024-02-26T09:55:43;99608.59;;;11.51;100.00
58072;BME280;60383;46.626;18.866;2024-02-26T09:58:10;99606.41;;;11.70;100.00
58072;BME280;60383;46.626;18.866;2024-02-26T10:00:38;99607.91;;;11.73;100.00
58072;BME280;60383;46.626;18.866;2024-02-26T10:03:06;99607.00;;;11.95;100.00
58072;BME280;60383;46.626;18.866;2024-02-26T10:05:35;99605.34;;;12.09;100.00
58072;BME280;60383;46.626;18.866;2024-02-26T10:08:04;99614.44;;;12.55;100.00
58072;BME280;60383;46.626;18.866;2024-02-26T10:10:30;99615.22;;;12.34;97.55
58072;BME280;60383;46.626;18.866;2024-02-26T10:12:59;99621.59;;;13.01;96.69
58072;BME280;60383;46.626;18.866;2024-02-26T10:15:24;99618.59;;;13.54;92.05
58072;BME280;60383;46.626;18.866;2024-02-26T10:17:50;99614.75;;;13.98;88.33
58072;BME280;60383;46.626;18.866;2024-02-26T10:20:17;99621.41;;;14.11;87.52
58072;BME280;60383;46.626;18.866;2024-02-26T10:22:44;99624.94;;;13.54;89.39
58072;BME280;60383;46.626;18.866;2024-02-26T10:25:09;99619.41;;;13.98;89.43
58072;BME280;60383;46.626;18.866;2024-02-26T10:27:35;99626.09;;;13.88;86.32
58072;BME280;60383;46.626;18.866;2024-02-26T10:30:15;99619.41;;;13.98;91.00
58072;BME280;60383;46.626;18.866;2024-02-26T10:32:43;99618.84;;;14.37;88.11
58072;BME280;60383;46.626;18.866;2024-02-26T10:35:08;99621.69;;;14.86;86.02
58072;BME280;60383;46.626;18.866;2024-02-26T10:37:34;99615.63;;;15.11;79.01
58072;BME280;60383;46.626;18.866;2024-02-26T10:39:59;99616.25;;;15.06;78.18
58072;BME280;60383;46.626;18.866;2024-02-26T10:42:28;99612.44;;;15.14;79.75
58072;BME280;60383;46.626;18.866;2024-02-26T10:44:53;99616.84;;;14.60;77.32
58072;BME280;60383;46.626;18.866;2024-02-26T10:47:19;99602.22;;;14.59;80.34
58072;BME280;60383;46.626;18.866;2024-02-26T10:49:46;99598.72;;;14.37;82.19
58072;BME280;60383;46.626;18.866;2024-02-26T10:52:13;99604.06;;;14.45;80.53
58072;BME280;60383;46.626;18.866;2024-02-26T10:54:41;99600.03;;;14.48;78.94
58072;BME280;60383;46.626;18.866;2024-02-26T10:57:08;99599.31;;;14.67;79.69
58072;BME280;60383;46.626;18.866;2024-02-26T10:59:34;99595.47;;;14.62;77.74
58072;BME280;60383;46.626;18.866;2024-02-26T11:02:00;99589.41;;;14.80;79.53
58072;BME280;60383;46.626;18.866;2024-02-26T11:04:26;99581.34;;;14.78;77.02
58072;BME280;60383;46.626;18.866;2024-02-26T11:06:54;99588.22;;;15.02;76.15
58072;BME280;60383;46.626;18.866;2024-02-26T11:09:22;99580.19;;;15.08;75.29
58072;BME280;60383;46.626;18.866;2024-02-26T11:11:49;99575.09;;;15.11;75.91
58072;BME280;60383;46.626;18.866;2024-02-26T11:14:18;99572.88;;;15.82;71.79
58072;BME280;60383;46.626;18.866;2024-02-26T11:16:44;99576.69;;;16.15;71.66
58072;BME280;60383;46.626;18.866;2024-02-26T11:19:10;99563.72;;;16.15;71.92
58072;BME280;60383;46.626;18.866;2024-02-26T11:21:37;99566.16;;;16.57;69.49
58072;BME280;60383;46.626;18.866;2024-02-26T11:24:12;99567.06;;;16.37;68.45
58072;BME280;60383;46.626;18.866;2024-02-26T11:26:54;99577.22;;;16.57;69.19
58072;BME280;60383;46.626;18.866;2024-02-26T11:32:10;99566.91;;;16.19;70.94
58072;BME280;60383;46.626;18.866;2024-02-26T11:34:36;99571.13;;;16.35;70.20
58072;BME280;60383;46.626;18.866;2024-02-26T11:37:14;99558.66;;;15.85;70.88
58072;BME280;60383;46.626;18.866;2024-02-26T11:39:41;99560.09;;;15.47;72.73
58072;BME280;60383;46.626;18.866;2024-02-26T11:42:08;99549.94;;;15.55;74.62
58072;BME280;60383;46.626;18.866;2024-02-26T11:44:34;99557.81;;;15.85;72.68
58072;BME280;60383;46.626;18.866;2024-02-26T11:47:09;99560.75;;;15.96;70.29
58072;BME280;60383;46.626;18.866;2024-02-26T11:49:35;99548.03;;;15.89;70.46
58072;BME280;60383;46.626;18.866;2024-02-26T11:52:05;99556.13;;;15.84;69.95
58072;BME280;60383;46.626;18.866;2024-02-26T11:54:53;99554.84;;;15.86;70.20
58072;BME280;60383;46.626;18.866;2024-02-26T11:57:29;99556.13;;;15.84;70.85
58072;BME280;60383;46.626;18.866;2024-02-26T12:05:16;99546.34;;;15.88;73.31
58072;BME280;60383;46.626;18.866;2024-02-26T12:07:44;99542.09;;;15.92;72.00
58072;BME280;60383;46.626;18.866;2024-02-26T12:10:59;99541.66;;;15.75;71.38
58072;BME280;60383;46.626;18.866;2024-02-26T12:13:12;99543.38;;;16.03;72.58
58072;BME280;60383;46.626;18.866;2024-02-26T12:15:46;99532.34;;;16.55;68.86
58072;BME280;60383;46.626;18.866;2024-02-26T12:18:20;99535.28;;;16.67;67.86
58072;BME280;60383;46.626;18.866;2024-02-26T12:20:46;99539.81;;;16.48;67.44
58072;BME280;60383;46.626;18.866;2024-02-26T12:23:16;99544.63;;;15.67;68.96
58072;BME280;60383;46.626;18.866;2024-02-26T12:25:44;99540.81;;;15.68;69.82
58072;BME280;60383;46.626;18.866;2024-02-26T12:28:14;99547.84;;;15.84;71.45
58072;BME280;60383;46.626;18.866;2024-02-26T12:30:39;99538.19;;;16.26;70.31
58072;BME280;60383;46.626;18.866;2024-02-26T12:33:05;99541.34;;;16.43;68.47
58072;BME280;60383;46.626;18.866;2024-02-26T12:35:31;99536.06;;;16.22;68.53
58072;BME280;60383;46.626;18.866;2024-02-26T12:37:58;99537.81;;;15.76;70.03
58072;BME280;60383;46.626;18.866;2024-02-26T12:40:23;99538.44;;;16.05;70.55
58072;BME280;60383;46.626;18.866;2024-02-26T12:42:49;99536.56;;;15.85;70.22
58072;BME280;60383;46.626;18.866;2024-02-26T12:45:15;99541.22;;;15.64;71.64
58072;BME280;60383;46.626;18.866;2024-02-26T12:47:42;99534.38;;;16.27;69.22
58072;BME280;60383;46.626;18.866;2024-02-26T12:50:09;99525.72;;;16.69;66.91
58072;BME280;60383;46.626;18.866;2024-02-26T12:52:37;99516.22;;;17.04;65.01